sensor_id;sensor_type;location;lat;lon;timestamp;P1;durP1;ratioP1;P2;durP2;ratioP2
23768;SDS011;12064;50.890;5.424;2023-12-22T00:00:11;3.20;;;1.10;;
23768;SDS011;12064;50.890;5.424;2023-12-22T00:09:01;2.83;;;1.00;;
23768;SDS011;12064;50.890;5.424;2023-12-22T00:17:52;2.50;;;1.08;;
23768;SDS011;12064;50.890;5.424;2023-12-22T00:26:43;3.30;;;1.17;;
23768;SDS011;12064;50.890;5.424;2023-12-22T00:35:34;1.27;;;0.70;;
23768;SDS011;12064;50.890;5.424;2023-12-22T00:44:25;2.50;;;1.10;;
23768;SDS011;12064;50.890;5.424;2023-12-22T00:53:17;1.90;;;1.05;;
23768;SDS011;12064;50.890;5.424;2023-12-22T01:02:08;2.60;;;1.10;;
23768;SDS011;12064;50.890;5.424;2023-12-22T01:10:58;1.98;;;1.00;;
23768;SDS011;12064;50.890;5.424;2023-12-22T01:19:49;3.50;;;1.10;;
23768;SDS011;12064;50.890;5.424;2023-12-22T01:28:41;1.95;;;1.00;;
23768;SDS011;12064;50.890;5.424;2023-12-22T01:37:31;2.63;;;1.20;;
23768;SDS011;12064;50.890;5.424;2023-12-22T01:46:22;1.80;;;0.90;;
23768;SDS011;12064;50.890;5.424;2023-12-22T01:55:13;2.10;;;1.00;;
23768;SDS011;12064;50.890;5.424;2023-12-22T02:04:05;3.00;;;1.13;;
23768;SDS011;12064;50.890;5.424;2023-12-22T02:12:56;2.33;;;0.90;;
23768;SDS011;12064;50.890;5.424;2023-12-22T02:21:59;2.80;;;0.90;;
23768;SDS011;12064;50.890;5.424;2023-12-22T02:31:01;3.10;;;1.00;;
23768;SDS011;12064;50.890;5.424;2023-12-22T02:40:17;2.60;;;1.00;;
23768;SDS011;12064;50.890;5.424;2023-12-22T02:49:10;2.35;;;0.93;;
23768;SDS011;12064;50.890;5.424;2023-12-22T02:58:03;2.10;;;0.80;;
23768;SDS011;12064;50.890;5.424;2023-12-22T03:06:53;1.60;;;0.87;;
23768;SDS011;12064;50.890;5.424;2023-12-22T03:15:47;3.88;;;1.15;;
23768;SDS011;12064;50.890;5.424;2023-12-22T03:24:38;2.73;;;1.00;;
23768;SDS011;12064;50.890;5.424;2023-12-22T03:33:28;3.03;;;1.10;;
23768;SDS011;12064;50.890;5.424;2023-12-22T03:42:19;3.63;;;1.00;;
23768;SDS011;12064;50.890;5.424;2023-12-22T03:51:10;2.03;;;1.08;;
23768;SDS011;12064;50.890;5.424;2023-12-22T04:00:05;3.58;;;1.30;;
23768;SDS011;12064;50.890;5.424;2023-12-22T04:08:56;4.47;;;0.98;;
23768;SDS011;12064;50.890;5.424;2023-12-22T04:17:46;2.83;;;1.00;;
23768;SDS011;12064;50.890;5.424;2023-12-22T04:26:37;2.78;;;1.20;;
23768;SDS011;12064;50.890;5.424;2023-12-22T04:35:28;4.03;;;1.10;;
23768;SDS011;12064;50.890;5.424;2023-12-22T04:44:19;4.03;;;1.20;;
23768;SDS011;12064;50.890;5.424;2023-12-22T04:53:09;1.88;;;1.10;;
23768;SDS011;12064;50.890;5.424;2023-12-22T05:02:00;2.50;;;1.10;;
23768;SDS011;12064;50.890;5.424;2023-12-22T05:10:53;2.70;;;1.03;;
23768;SDS011;12064;50.890;5.424;2023-12-22T05:19:43;1.70;;;0.88;;
23768;SDS011;12064;50.890;5.424;2023-12-22T05:28:34;1.73;;;0.80;;
23768;SDS011;12064;50.890;5.424;2023-12-22T05:37:25;1.67;;;0.88;;
23768;SDS011;12064;50.890;5.424;2023-12-22T05:46:17;1.47;;;1.00;;
23768;SDS011;12064;50.890;5.424;2023-12-22T05:55:07;1.48;;;1.00;;
23768;SDS011;12064;50.890;5.424;2023-12-22T06:04:01;2.42;;;0.93;;
23768;SDS011;12064;50.890;5.424;2023-12-22T06:12:52;2.08;;;0.90;;
23768;SDS011;12064;50.890;5.424;2023-12-22T06:21:42;2.08;;;0.93;;
23768;SDS011;12064;50.890;5.424;2023-12-22T06:30:36;1.63;;;0.90;;
23768;SDS011;12064;50.890;5.424;2023-12-22T06:39:26;2.03;;;0.90;;
23768;SDS011;12064;50.890;5.424;2023-12-22T06:48:17;1.80;;;1.05;;
23768;SDS011;12064;50.890;5.424;2023-12-22T06:57:09;3.45;;;1.20;;
23768;SDS011;12064;50.890;5.424;2023-12-22T07:05:59;1.67;;;0.90;;
23768;SDS011;12064;50.890;5.424;2023-12-22T07:14:50;3.53;;;1.27;;
23768;SDS011;12064;50.890;5.424;2023-12-22T07:23:41;4.70;;;1.50;;
23768;SDS011;12064;50.890;5.424;2023-12-22T07:32:34;3.83;;;1.40;;
23768;SDS011;12064;50.890;5.424;2023-12-22T07:41:26;4.63;;;1.38;;
23768;SDS011;12064;50.890;5.424;2023-12-22T07:50:16;4.80;;;1.90;;
23768;SDS011;12064;50.890;5.424;2023-12-22T07:59:11;4.82;;;1.60;;
23768;SDS011;12064;50.890;5.424;2023-12-22T08:08:04;4.00;;;1.38;;
23768;SDS011;12064;50.890;5.424;2023-12-22T08:16:55;4.90;;;1.67;;
23768;SDS011;12064;50.890;5.424;2023-12-22T08:25:46;3.75;;;1.20;;
23768;SDS011;12064;50.890;5.424;2023-12-22T08:34:38;5.57;;;1.77;;
23768;SDS011;12064;50.890;5.424;2023-12-22T08:43:28;4.88;;;1.70;;
23768;SDS011;12064;50.890;5.424;2023-12-22T08:52:19;4.27;;;1.60;;
23768;SDS011;12064;50.890;5.424;2023-12-22T09:01:15;4.35;;;1.60;;
23768;SDS011;12064;50.890;5.424;2023-12-22T09:10:07;4.10;;;1.35;;
23768;SDS011;12064;50.890;5.424;2023-12-22T09:18:57;4.93;;;1.60;;
23768;SDS011;12064;50.890;5.424;2023-12-22T09:27:48;3.58;;;1.40;;
23768;SDS011;12064;50.890;5.424;2023-12-22T09:36:39;3.90;;;1.40;;
23768;SDS011;12064;50.890;5.424;2023-12-22T09:45:29;2.83;;;1.10;;
23768;SDS011;12064;50.890;5.424;2023-12-22T09:54:23;3.45;;;1.23;;
23768;SDS011;12064;50.890;5.424;2023-12-22T10:03:15;2.58;;;1.17;;
23768;SDS011;12064;50.890;5.424;2023-12-22T10:12:06;1.92;;;1.10;;
23768;SDS011;12064;50.890;5.424;2023-12-22T10:21:01;3.40;;;1.48;;
23768;SDS011;12064;50.890;5.424;2023-12-22T10:29:55;3.33;;;1.17;;
23768;SDS011;12064;50.890;5.424;2023-12-22T10:38:46;2.15;;;0.98;;
23768;SDS011;12064;50.890;5.424;2023-12-22T10:47:38;2.17;;;1.00;;
23768;SDS011;12064;50.890;5.424;2023-12-22T10:56:29;2.03;;;0.95;;
23768;SDS011;12064;50.890;5.424;2023-12-22T11:05:20;1.50;;;0.80;;
23768;SDS011;12064;50.890;5.424;2023-12-22T11:14:14;2.65;;;1.10;;
23768;SDS011;12064;50.890;5.424;2023-12-22T11:23:06;1.52;;;0.90;;
23768;SDS011;12064;50.890;5.424;2023-12-22T11:32:00;1.45;;;0.85;;
23768;SDS011;12064;50.890;5.424;2023-12-22T11:40:55;1.33;;;0.85;;
23768;SDS011;12064;50.890;5.424;2023-12-22T11:49:46;1.60;;;1.00;;
23768;SDS011;12064;50.890;5.424;2023-12-22T11:58:38;2.53;;;0.98;;
23768;SDS011;12064;50.890;5.424;2023-12-22T12:07:48;1.15;;;0.90;;
23768;SDS011;12064;50.890;5.424;2023-12-22T12:16:40;1.58;;;0.93;;
23768;SDS011;12064;50.890;5.424;2023-12-22T12:25:32;1.25;;;0.70;;
23768;SDS011;12064;50.890;5.424;2023-12-22T12:34:23;1.23;;;0.93;;
23768;SDS011;12064;50.890;5.424;2023-12-22T12:43:15;1.58;;;0.80;;
23768;SDS011;12064;50.890;5.424;2023-12-22T12:52:11;0.98;;;0.80;;
23768;SDS011;12064;50.890;5.424;2023-12-22T13:01:09;2.20;;;0.82;;
23768;SDS011;12064;50.890;5.424;2023-12-22T13:10:02;1.75;;;0.70;;
23768;SDS011;12064;50.890;5.424;2023-12-22T13:18:54;1.55;;;0.85;;
23768;SDS011;12064;50.890;5.424;2023-12-22T13:27:45;1.13;;;0.63;;
23768;SDS011;12064;50.890;5.424;2023-12-22T13:36:37;0.60;;;0.60;;
23768;SDS011;12064;50.890;5.424;2023-12-22T13:45:28;1.48;;;0.80;;
23768;SDS011;12064;50.890;5.424;2023-12-22T13:54:21;0.82;;;0.50;;
23768;SDS011;12064;50.890;5.424;2023-12-22T14:03:23;0.90;;;0.70;;
23768;SDS011;12064;50.890;5.424;2023-12-22T14:12:15;0.80;;;0.70;;
23768;SDS011;12064;50.890;5.424;2023-12-22T14:21:06;1.38;;;0.77;;
23768;SDS011;12064;50.890;5.424;2023-12-22T14:29:57;1.20;;;0.50;;
23768;SDS011;12064;50.890;5.424;2023-12-22T14:38:47;0.98;;;0.77;;
23768;SDS011;12064;50.890;5.424;2023-12-22T14:47:38;0.80;;;0.70;;
23768;SDS011;12064;50.890;5.424;2023-12-22T14:56:30;1.23;;;0.80;;
23768;SDS011;12064;50.890;5.424;2023-12-22T15:05:20;0.90;;;0.63;;
23768;SDS011;12064;50.890;5.424;2023-12-22T15:14:12;0.73;;;0.60;;
23768;SDS011;12064;50.890;5.424;2023-12-22T15:23:02;1.38;;;0.70;;
23768;SDS011;12064;50.890;5.424;2023-12-22T15:31:53;1.45;;;0.60;;
23768;SDS011;12064;50.890;5.424;2023-12-22T15:40:49;0.90;;;0.60;;
23768;SDS011;12064;50.890;5.424;2023-12-22T15:49:40;1.73;;;0.70;;
23768;SDS011;12064;50.890;5.424;2023-12-22T15:58:31;1.20;;;0.80;;
23768;SDS011;12064;50.890;5.424;2023-12-22T16:07:22;1.52;;;0.57;;
23768;SDS011;12064;50.890;5.424;2023-12-22T16:16:16;1.63;;;0.70;;
23768;SDS011;12064;50.890;5.424;2023-12-22T16:25:08;1.88;;;0.70;;
23768;SDS011;12064;50.890;5.424;2023-12-22T16:33:59;1.07;;;0.70;;
23768;SDS011;12064;50.890;5.424;2023-12-22T16:42:50;1.50;;;0.80;;
23768;SDS011;12064;50.890;5.424;2023-12-22T16:51:41;1.67;;;0.80;;
23768;SDS011;12064;50.890;5.424;2023-12-22T17:00:31;1.00;;;0.70;;
23768;SDS011;12064;50.890;5.424;2023-12-22T17:09:22;1.40;;;0.77;;
23768;SDS011;12064;50.890;5.424;2023-12-22T17:18:13;1.48;;;0.73;;
23768;SDS011;12064;50.890;5.424;2023-12-22T17:27:07;1.77;;;0.70;;
23768;SDS011;12064;50.890;5.424;2023-12-22T17:35:58;1.17;;;0.77;;
23768;SDS011;12064;50.890;5.424;2023-12-22T17:44:48;1.25;;;0.60;;
23768;SDS011;12064;50.890;5.424;2023-12-22T17:53:39;1.45;;;0.82;;
23768;SDS011;12064;50.890;5.424;2023-12-22T18:02:32;1.73;;;1.00;;
23768;SDS011;12064;50.890;5.424;2023-12-22T18:11:23;1.73;;;0.80;;
23768;SDS011;12064;50.890;5.424;2023-12-22T18:20:20;1.13;;;0.80;;
23768;SDS011;12064;50.890;5.424;2023-12-22T18:38:03;2.00;;;0.73;;
23768;SDS011;12064;50.890;5.424;2023-12-22T18:46:54;1.90;;;0.75;;
23768;SDS011;12064;50.890;5.424;2023-12-22T18:55:48;2.67;;;1.00;;
23768;SDS011;12064;50.890;5.424;2023-12-22T19:04:39;2.38;;;0.90;;
23768;SDS011;12064;50.890;5.424;2023-12-22T19:13:30;3.08;;;0.65;;
23768;SDS011;12064;50.890;5.424;2023-12-22T19:22:21;1.43;;;0.70;;
23768;SDS011;12064;50.890;5.424;2023-12-22T19:31:11;1.27;;;0.67;;
23768;SDS011;12064;50.890;5.424;2023-12-22T19:40:03;1.38;;;0.80;;
23768;SDS011;12064;50.890;5.424;2023-12-22T19:48:55;2.30;;;0.73;;
23768;SDS011;12064;50.890;5.424;2023-12-22T19:57:46;1.52;;;0.70;;
23768;SDS011;12064;50.890;5.424;2023-12-22T20:06:40;1.63;;;0.80;;
23768;SDS011;12064;50.890;5.424;2023-12-22T20:15:33;0.98;;;0.80;;
23768;SDS011;12064;50.890;5.424;2023-12-22T20:24:24;2.22;;;0.70;;
23768;SDS011;12064;50.890;5.424;2023-12-22T20:33:15;1.27;;;0.63;;
23768;SDS011;12064;50.890;5.424;2023-12-22T20:42:05;0.85;;;0.60;;
23768;SDS011;12064;50.890;5.424;2023-12-22T20:51:01;1.75;;;0.98;;
23768;SDS011;12064;50.890;5.424;2023-12-22T20:59:53;3.60;;;1.10;;
23768;SDS011;12064;50.890;5.424;2023-12-22T21:08:44;2.08;;;0.90;;
23768;SDS011;12064;50.890;5.424;2023-12-22T21:17:35;2.65;;;0.80;;
23768;SDS011;12064;50.890;5.424;2023-12-22T21:26:27;1.58;;;0.90;;
23768;SDS011;12064;50.890;5.424;2023-12-22T21:35:17;2.33;;;0.82;;
23768;SDS011;12064;50.890;5.424;2023-12-22T21:44:08;1.73;;;0.80;;
23768;SDS011;12064;50.890;5.424;2023-12-22T21:52:59;1.73;;;0.95;;
23768;SDS011;12064;50.890;5.424;2023-12-22T22:01:49;2.03;;;0.90;;
23768;SDS011;12064;50.890;5.424;2023-12-22T22:10:41;2.08;;;1.00;;
23768;SDS011;12064;50.890;5.424;2023-12-22T22:19:31;2.72;;;0.85;;
23768;SDS011;12064;50.890;5.424;2023-12-22T22:28:22;2.90;;;0.82;;
23768;SDS011;12064;50.890;5.424;2023-12-22T22:37:13;2.63;;;1.00;;
23768;SDS011;12064;50.890;5.424;2023-12-22T22:46:03;1.92;;;0.85;;
23768;SDS011;12064;50.890;5.424;2023-12-22T22:54:58;3.50;;;0.93;;
23768;SDS011;12064;50.890;5.424;2023-12-22T23:03:48;2.50;;;1.02;;
23768;SDS011;12064;50.890;5.424;2023-12-22T23:12:39;1.57;;;0.80;;
23768;SDS011;12064;50.890;5.424;2023-12-22T23:21:30;1.67;;;0.90;;
23768;SDS011;12064;50.890;5.424;2023-12-22T23:30:20;2.33;;;0.87;;
23768;SDS011;12064;50.890;5.424;2023-12-22T23:39:11;1.47;;;0.87;;
23768;SDS011;12064;50.890;5.424;2023-12-22T23:48:02;1.98;;;0.90;;
23768;SDS011;12064;50.890;5.424;2023-12-22T23:56:52;1.73;;;1.02;;
